createdAt,value
2024-05-09T00:02:25.636Z,58.57
2024-05-09T00:07:46.894Z,58.68
2024-05-09T00:13:08.549Z,58.74
2024-05-09T00:18:30.553Z,58.76
2024-05-09T00:23:53.027Z,58.63
2024-05-09T00:29:15.263Z,59.10
2024-05-09T00:34:36.525Z,58.61
2024-05-09T00:39:57.885Z,58.75
2024-05-09T00:45:19.124Z,58.94
2024-05-09T00:50:41.662Z,58.55
2024-05-09T00:56:05.141Z,58.93
2024-05-09T01:01:27.733Z,58.73
2024-05-09T01:06:49.222Z,58.51
2024-05-09T01:12:10.707Z,58.38
2024-05-09T01:17:32.953Z,58.52
2024-05-09T01:22:54.812Z,57.58
2024-05-09T01:28:16.432Z,56.78
2024-05-09T01:33:38.660Z,56.22
2024-05-09T01:39:00.038Z,55.64
2024-05-09T01:44:21.378Z,55.27
2024-05-09T01:49:43.404Z,54.67
2024-05-09T01:55:07.151Z,54.23
2024-05-09T02:00:37.378Z,53.82
2024-05-09T02:06:02.416Z,53.42
2024-05-09T02:11:23.464Z,53.21
2024-05-09T02:16:44.779Z,53.26
2024-05-09T02:22:05.987Z,53.05
2024-05-09T02:27:27.215Z,52.87
2024-05-09T02:32:49.166Z,52.77
2024-05-09T02:38:10.813Z,52.86
2024-05-09T02:43:32.646Z,52.54
2024-05-09T02:48:53.825Z,52.29
2024-05-09T02:54:14.862Z,53.09
2024-05-09T02:59:36.197Z,52.67
2024-05-09T03:04:57.952Z,53.18
2024-05-09T03:10:25.403Z,52.92
2024-05-09T03:15:50.180Z,52.98
2024-05-09T03:21:11.575Z,52.65
2024-05-09T03:26:33.413Z,53.05
2024-05-09T03:31:54.816Z,52.98
2024-05-09T03:37:16.095Z,52.77
2024-05-09T03:42:41.634Z,52.83
2024-05-09T03:48:03.177Z,53.06
2024-05-09T03:53:25.574Z,53.23
2024-05-09T03:58:46.824Z,52.78
2024-05-09T04:04:09.517Z,53.50
2024-05-09T04:09:31.006Z,54.40
2024-05-09T04:14:52.373Z,55.00
2024-05-09T04:20:24.168Z,55.11
2024-05-09T04:25:54.684Z,54.40
2024-05-09T04:31:15.823Z,54.60
2024-05-09T04:36:36.976Z,54.40
2024-05-09T04:41:58.238Z,54.61
2024-05-09T04:47:21.015Z,54.71
2024-05-09T04:52:42.010Z,54.75
2024-05-09T04:58:03.998Z,54.32
2024-05-09T05:03:25.212Z,54.39
2024-05-09T05:08:47.244Z,54.35
2024-05-09T05:14:08.482Z,54.13
2024-05-09T05:19:30.630Z,54.64
2024-05-09T05:24:52.351Z,54.70
2024-05-09T05:30:21.101Z,54.85
2024-05-09T05:35:47.326Z,55.11
2024-05-09T05:41:08.817Z,55.24
2024-05-09T05:46:31.406Z,55.89
2024-05-09T05:51:52.757Z,55.35
2024-05-09T05:57:15.456Z,55.43
2024-05-09T06:02:36.919Z,55.34
2024-05-09T06:07:58.999Z,55.06
2024-05-09T06:13:20.604Z,54.31
2024-05-09T06:18:42.004Z,54.39
2024-05-09T06:24:06.157Z,54.10
2024-05-09T06:29:27.947Z,54.06
2024-05-09T06:34:49.199Z,53.83
2024-05-09T06:45:33.668Z,53.64
2024-05-09T06:50:55.301Z,53.67
2024-05-09T06:56:16.865Z,53.52
2024-05-09T07:01:38.395Z,53.12
2024-05-09T07:06:59.543Z,52.72
2024-05-09T07:12:20.926Z,52.24
2024-05-09T07:17:43.178Z,52.48
2024-05-09T07:23:05.239Z,52.00
2024-05-09T07:28:26.802Z,51.58
2024-05-09T07:33:48.096Z,51.20
2024-05-09T07:39:09.708Z,51.13
2024-05-09T07:44:31.271Z,50.46
2024-05-09T07:51:32.809Z,50.21
2024-05-09T07:55:34.024Z,50.14
2024-05-09T08:00:56.383Z,49.54
2024-05-09T08:06:17.650Z,49.22
2024-05-09T08:11:40.148Z,49.37
2024-05-09T08:17:02.464Z,49.44
2024-05-09T08:22:23.694Z,49.69
2024-05-09T08:27:45.414Z,49.05
2024-05-09T08:33:07.735Z,48.20
2024-05-09T08:38:29.704Z,48.38
2024-05-09T08:43:51.462Z,48.24
2024-05-09T08:49:13.679Z,47.48
2024-05-09T08:54:35.686Z,46.90
2024-05-09T09:00:00.445Z,47.36
2024-05-09T09:05:23.575Z,46.36
2024-05-09T09:10:46.541Z,46.30
2024-05-09T09:16:08.242Z,46.60
2024-05-09T09:21:30.314Z,45.93
2024-05-09T09:26:52.156Z,45.85
2024-05-09T09:32:13.667Z,45.87
2024-05-09T09:37:35.844Z,45.72
2024-05-09T09:42:57.760Z,45.36
2024-05-09T09:48:20.218Z,45.27
2024-05-09T09:53:42.702Z,45.53
2024-05-09T09:59:07.208Z,45.49
2024-05-09T10:04:28.360Z,44.76
2024-05-09T10:09:50.102Z,44.46
2024-05-09T10:15:11.579Z,44.63
2024-05-09T10:20:45.945Z,43.18
2024-05-09T10:26:38.716Z,43.42
2024-05-09T10:32:00.223Z,43.52
2024-05-09T10:37:22.230Z,43.10
2024-05-09T10:42:43.683Z,43.19
2024-05-09T10:48:06.073Z,43.59
2024-05-09T10:53:27.681Z,43.28
2024-05-09T10:58:52.057Z,42.61
2024-05-09T11:04:14.464Z,42.65
2024-05-09T11:09:36.529Z,42.67
2024-05-09T11:14:58.252Z,42.86
2024-05-09T11:20:26.726Z,43.04
2024-05-09T11:25:52.776Z,43.20
2024-05-09T11:31:14.509Z,43.47
2024-05-09T11:36:36.265Z,43.71
2024-05-09T11:41:57.825Z,43.89
2024-05-09T11:47:21.655Z,43.85
2024-05-09T11:52:43.021Z,44.18
2024-05-09T11:58:04.455Z,44.15
2024-05-09T12:03:25.858Z,44.20
2024-05-09T12:08:47.385Z,44.25
2024-05-09T12:14:08.974Z,44.34
2024-05-09T12:19:30.484Z,45.01
2024-05-09T12:24:52.240Z,44.32
2024-05-09T12:30:20.777Z,44.31
2024-05-09T12:35:51.104Z,44.23
2024-05-09T12:41:12.648Z,43.60
2024-05-09T12:46:34.007Z,43.99
2024-05-09T12:51:55.259Z,44.41
2024-05-09T12:57:16.733Z,44.37
2024-05-09T13:02:38.261Z,45.07
2024-05-09T13:08:00.697Z,45.03
2024-05-09T13:13:21.998Z,45.41
2024-05-09T13:18:44.423Z,45.93
2024-05-09T13:24:06.775Z,45.66
2024-05-09T13:29:28.258Z,45.81
2024-05-09T13:34:49.643Z,45.86
2024-05-09T13:40:14.230Z,46.08
2024-05-09T13:45:36.082Z,46.22
2024-05-09T13:50:57.872Z,46.11
2024-05-09T13:56:19.413Z,45.96
2024-05-09T14:01:41.441Z,45.74
2024-05-09T14:07:03.895Z,45.91
2024-05-09T14:12:24.984Z,45.77
2024-05-09T14:17:46.771Z,45.77
2024-05-09T14:23:08.380Z,45.55
2024-05-09T14:28:29.827Z,45.51
2024-05-09T14:33:51.382Z,45.69
2024-05-09T14:39:12.877Z,45.58
2024-05-09T14:44:34.044Z,45.27
2024-05-09T14:49:55.932Z,45.99
2024-05-09T14:55:17.026Z,45.17
2024-05-09T15:00:45.744Z,44.53
2024-05-09T15:06:11.354Z,44.66
2024-05-09T15:11:32.829Z,44.74
2024-05-09T15:16:53.823Z,44.83
2024-05-09T15:22:16.627Z,45.20
2024-05-09T15:27:37.899Z,45.18
2024-05-09T15:33:00.118Z,45.22
2024-05-09T15:38:21.751Z,45.33
2024-05-09T15:43:42.908Z,45.14
2024-05-09T15:49:04.458Z,45.05
2024-05-09T15:54:26.810Z,45.10
2024-05-09T15:59:48.280Z,45.30
2024-05-09T16:05:10.006Z,45.56
2024-05-09T16:10:33.249Z,45.84
2024-05-09T16:15:56.124Z,45.39
2024-05-09T16:21:17.434Z,45.44
2024-05-09T16:26:39.002Z,45.37
2024-05-09T16:32:00.492Z,45.39
2024-05-09T16:37:24.244Z,45.55
2024-05-09T16:42:46.669Z,45.22
2024-05-09T16:48:09.004Z,45.57
2024-05-09T16:53:30.305Z,45.86
2024-05-09T16:58:51.474Z,46.21
2024-05-09T17:04:12.944Z,46.31
2024-05-09T17:09:34.562Z,46.75
2024-05-09T17:14:56.672Z,47.34
2024-05-09T17:20:28.871Z,47.74
2024-05-09T17:25:54.716Z,47.77
2024-05-09T17:31:15.878Z,48.12
2024-05-09T17:36:37.181Z,49.16
2024-05-09T17:41:58.657Z,49.70
2024-05-09T17:47:20.458Z,49.42
2024-05-09T17:52:42.028Z,49.90
2024-05-09T17:58:04.752Z,50.51
2024-05-09T18:03:27.034Z,51.06
2024-05-09T18:08:48.427Z,51.24
2024-05-09T18:14:09.571Z,51.93
2024-05-09T18:19:31.198Z,51.90
2024-05-09T18:24:53.414Z,51.74
2024-05-09T18:30:24.124Z,52.31
2024-05-09T18:35:52.847Z,52.41
2024-05-09T18:41:14.469Z,53.27
2024-05-09T18:46:36.775Z,53.06
2024-05-09T18:51:58.310Z,53.47
2024-05-09T18:57:19.533Z,53.78
2024-05-09T19:02:41.035Z,54.21
2024-05-09T19:08:02.898Z,54.34
2024-05-09T19:13:27.452Z,54.79
2024-05-09T19:18:51.450Z,54.89
2024-05-09T19:24:13.380Z,55.39
2024-05-09T19:29:35.035Z,56.00
2024-05-09T19:34:56.281Z,56.06
2024-05-09T19:40:24.790Z,56.29
2024-05-09T19:45:52.172Z,56.70
2024-05-09T19:51:14.036Z,56.99
2024-05-09T19:56:35.357Z,57.85
2024-05-09T20:01:58.390Z,57.67
2024-05-09T20:07:20.022Z,57.83
2024-05-09T20:12:41.570Z,58.49
2024-05-09T20:18:03.023Z,59.19
2024-05-09T20:23:25.563Z,58.45
2024-05-09T20:28:46.914Z,58.82
2024-05-09T20:34:08.277Z,58.98
2024-05-09T20:39:29.463Z,59.32
2024-05-09T20:44:51.267Z,59.48
2024-05-09T20:50:23.038Z,59.80
2024-05-09T20:55:50.131Z,59.82
2024-05-09T21:01:11.421Z,60.10
2024-05-09T21:06:32.806Z,60.50
2024-05-09T21:11:53.977Z,60.05
2024-05-09T21:17:15.266Z,60.28
2024-05-09T21:22:38.014Z,60.69
2024-05-09T21:27:59.706Z,60.29
2024-05-09T21:33:21.305Z,60.49
2024-05-09T21:38:43.507Z,60.65
2024-05-09T21:44:04.868Z,60.74
2024-05-09T21:49:26.749Z,60.49
2024-05-09T21:54:47.975Z,60.73
2024-05-09T22:00:20.325Z,60.62
2024-05-09T22:05:46.377Z,60.60
2024-05-09T22:11:07.933Z,60.58
2024-05-09T22:16:29.271Z,60.80
2024-05-09T22:21:50.987Z,60.51
2024-05-09T22:27:12.326Z,60.55
2024-05-09T22:32:33.708Z,60.41
2024-05-09T22:37:55.516Z,60.66
2024-05-09T22:43:19.370Z,60.43
2024-05-09T22:48:40.938Z,60.74
2024-05-09T22:54:04.270Z,60.83
2024-05-09T22:59:25.651Z,61.05
2024-05-09T23:04:47.343Z,61.00
2024-05-09T23:10:13.429Z,61.17
2024-05-09T23:15:39.261Z,60.92
2024-05-09T23:21:01.374Z,61.05
2024-05-09T23:26:22.954Z,60.94
2024-05-09T23:31:44.243Z,60.84
2024-05-09T23:37:05.522Z,61.24
2024-05-09T23:42:26.798Z,61.44
2024-05-09T23:47:48.064Z,61.20
2024-05-09T23:53:10.367Z,61.53
2024-05-09T23:58:32.092Z,61.42
